CheckWX is a tool to help pilots better visualize weather data.  It is not intended as a substitute for an official pre-flight weather briefing.

08:02:54 UTC

KPOE TAF
Polk AAF Airport
Fort Polk, Louisiana, USA
TAF KPOE 190000Z 1900/2006 10006KT 9999 FEW150 QNH3023INS BECMG 1913/1914 07010G15KT 9999 FEW120 SCT170 QNH3033INS BECMG 1923/1924 07006KT 9999 FEW035 QNH3022INS TX21/1921Z TN08/1912Z

Mar-19@
00:00 UTC

Mar-19 @ 00:00 UTC

Mar-19@
13:00 UTC

Mar-19 @ 13:00 UTC

TAF KPOE 190000Z 1900/2006 10006KT 9999 FEW150 QNH3023INS
Wind
  • 100° at 6 KTS
Cloud Levels
  • Few at 15,000' AGL

Mar-19@
13:00 UTC

Mar-19 @ 13:00 UTC

Mar-19@
23:00 UTC

Mar-19 @ 23:00 UTC

BECMG 1913/1914 07010G15KT 9999 FEW120 SCT170 QNH3033INS

Becoming

Becoming Conditions expected by Tue, Mar 19, 2019 @ 14:00 UTC

Wind
  • 070° at 10 KTS
  • {Gusting to 15 KTS
Cloud Levels
  • Few at 12,000' AGL
  • Scattered at 17,000' AGL

Mar-19@
23:00 UTC

Mar-19 @ 23:00 UTC

Mar-20@
06:00 UTC

Mar-20 @ 06:00 UTC

BECMG 1923/1924 07006KT 9999 FEW035 QNH3022INS TX21/1921Z TN08/1912Z

Becoming

Becoming Conditions expected by Wed, Mar 20, 2019 @ 00:00 UTC

Wind
  • 070° at 6 KTS
Cloud Levels
  • Few at 3,500' AGL